GMAD

Al Massira Airport

Agadir, Morocco
METAR GMAD 260300Z 10003KT 080V140 CAVOK 15/10 Q1007 NOSIG
Observed Flight Rules
Feb-26 @ 03:00 UTC (35 minutes ago) Visual Flight Rules
Wind Visibility Clouds
100° at 3 knots 10,000+ meters
  • Clear skies
Temperatures Readings
Current 15°C / 59°F
Dewpoint 10°C / 50°F
Humidity 72%
Altimeter 29.73" Hg
Pressure 1007 hPa
Elevation 74
METAR GMAD 260300Z 10003KT 080V140 CAVOK 15/10 Q1007 NOSIG
Observed Flight Rules
Feb-26 @ 03:00 UTC
(35 minutes ago)
VFR
Wind Visibility
100° at 3 knots 10,000+ meters
Clouds
  • Clear skies
Temperature Dewpoint
15°C / 59°F 10°C / 50°F
Humidity Altimeter Pressure
72% 29.73" Hg 1007 hPa